CMB822 Details

Departure: Grantley Adams International Airport (TBPB)
Arrival: Patrick Air Force Base (KCOF) at N/A
Route: BGI UA555 ILURI A555 COY SJU RTE6 BEANO Y290 HAGIT Y352 ZQA A555 ZBV BR57V WIERS BR22V FLL LBV COSTR3
Notes: USTRANSCOM CONTRACT FLIGHT


Current Weather Information
TBPB 231200Z 11011KT 9999 VCSH SCT018 29/24 Q1013 NOSIG
KCOF 231156Z AUTO 35012G17KT 10SM CLR 24/21 A3001 RMK AO2 SLP167 70002 T02410210 10257 20239 52012 TSNO $